createdAt,value
2018-10-03T00:00:09.144Z,4.70
2018-10-03T00:02:39.008Z,4.80
2018-10-03T00:05:07.816Z,4.83
2018-10-03T00:07:36.505Z,4.87
2018-10-03T00:10:05.304Z,4.67
2018-10-03T00:12:37.088Z,4.43
2018-10-03T00:15:06.692Z,4.60
2018-10-03T00:17:35.317Z,5.40
2018-10-03T00:20:10.446Z,5.20
2018-10-03T00:22:39.076Z,4.70
2018-10-03T00:25:07.589Z,5.30
2018-10-03T00:27:36.192Z,6.00
2018-10-03T00:30:04.786Z,5.60
2018-10-03T00:32:33.543Z,6.30
2018-10-03T00:35:02.127Z,6.30
2018-10-03T00:37:30.637Z,6.10
2018-10-03T00:39:59.454Z,6.70
2018-10-03T00:42:28.025Z,6.37
2018-10-03T00:44:56.586Z,6.03
2018-10-03T00:47:25.228Z,6.00
2018-10-03T00:49:53.826Z,6.57
2018-10-03T00:52:22.367Z,5.90
2018-10-03T00:54:51.031Z,6.70
2018-10-03T00:57:19.624Z,5.73
2018-10-03T00:59:48.443Z,5.23
2018-10-03T01:02:17.169Z,6.20
2018-10-03T01:04:45.846Z,5.80
2018-10-03T01:07:14.399Z,5.57
2018-10-03T01:09:42.953Z,5.70
2018-10-03T01:12:11.521Z,5.67
2018-10-03T01:14:40.211Z,5.93
2018-10-03T01:17:08.784Z,5.60
2018-10-03T01:19:37.424Z,5.30
2018-10-03T01:22:05.979Z,5.17
2018-10-03T01:24:34.570Z,5.83
2018-10-03T01:27:03.167Z,6.63
2018-10-03T01:29:31.815Z,6.03
2018-10-03T01:32:00.388Z,5.67
2018-10-03T01:34:28.997Z,5.27
2018-10-03T01:36:57.657Z,5.37
2018-10-03T01:39:26.185Z,5.47
2018-10-03T01:41:54.711Z,5.47
2018-10-03T01:44:23.255Z,5.37
2018-10-03T01:46:51.928Z,5.40
2018-10-03T01:49:20.492Z,5.27
2018-10-03T01:51:49.064Z,5.07
2018-10-03T01:54:17.622Z,4.60
2018-10-03T01:56:46.202Z,4.80
2018-10-03T01:59:14.778Z,4.83
2018-10-03T02:01:43.387Z,4.50
2018-10-03T02:04:11.918Z,4.30
2018-10-03T02:06:40.567Z,4.50
2018-10-03T02:09:09.163Z,4.37
2018-10-03T02:11:37.798Z,3.87
2018-10-03T02:14:06.475Z,4.43
2018-10-03T02:16:35.137Z,4.07
2018-10-03T02:19:03.914Z,3.77
2018-10-03T02:21:32.534Z,4.40
2018-10-03T02:24:01.115Z,4.27
2018-10-03T02:26:29.654Z,3.90
2018-10-03T02:28:58.267Z,4.13
2018-10-03T02:31:26.824Z,3.53
2018-10-03T02:33:55.332Z,3.43
2018-10-03T02:36:23.933Z,3.87
2018-10-03T02:38:52.403Z,3.73
2018-10-03T02:41:21.006Z,3.50
2018-10-03T02:43:49.520Z,3.37
2018-10-03T02:46:18.131Z,3.90
2018-10-03T02:48:46.668Z,3.60
2018-10-03T02:51:15.196Z,3.87
2018-10-03T02:53:43.798Z,4.53
2018-10-03T02:56:12.316Z,4.43
2018-10-03T02:58:41.157Z,3.53
2018-10-03T03:01:09.623Z,3.50
2018-10-03T03:03:38.266Z,3.80
2018-10-03T03:06:07.630Z,3.50
2018-10-03T03:08:36.195Z,3.23
2018-10-03T03:11:04.711Z,4.50
2018-10-03T03:13:33.236Z,4.47
2018-10-03T03:16:01.716Z,3.63
2018-10-03T03:18:30.235Z,4.20
2018-10-03T03:20:58.721Z,4.00
2018-10-03T03:23:27.220Z,3.83
2018-10-03T03:25:55.740Z,3.83
2018-10-03T03:28:24.366Z,3.53
2018-10-03T03:30:52.857Z,3.73
2018-10-03T03:33:21.416Z,4.10
2018-10-03T03:35:50.001Z,3.17
2018-10-03T03:38:18.953Z,3.30
2018-10-03T03:40:47.463Z,3.40
2018-10-03T03:43:15.922Z,3.50
2018-10-03T03:45:44.446Z,3.50
2018-10-03T03:48:13.001Z,4.07
2018-10-03T03:50:41.547Z,3.20
2018-10-03T03:53:10.149Z,3.27
2018-10-03T03:55:39.341Z,4.30
2018-10-03T03:58:07.896Z,3.73
2018-10-03T04:00:36.497Z,3.37
2018-10-03T04:03:05.067Z,4.00
2018-10-03T04:05:33.547Z,4.00
2018-10-03T04:08:02.095Z,3.57
2018-10-03T04:10:30.592Z,4.10
2018-10-03T04:12:59.154Z,4.20
2018-10-03T04:15:27.632Z,3.47
2018-10-03T04:17:56.165Z,4.57
2018-10-03T04:20:24.668Z,3.50
2018-10-03T04:22:53.189Z,3.70
2018-10-03T04:25:21.777Z,3.53
2018-10-03T04:27:50.303Z,3.70
2018-10-03T04:30:18.826Z,2.90
2018-10-03T04:32:47.362Z,3.40
2018-10-03T04:35:15.891Z,3.97
2018-10-03T04:37:44.384Z,3.53
2018-10-03T04:40:12.869Z,3.40
2018-10-03T04:42:41.415Z,3.50
2018-10-03T04:45:09.967Z,3.33
2018-10-03T04:47:39.245Z,3.43
2018-10-03T04:50:07.771Z,3.37
2018-10-03T04:52:36.246Z,3.53
2018-10-03T04:55:04.787Z,3.43
2018-10-03T04:57:33.251Z,3.83
2018-10-03T05:00:01.770Z,3.50
2018-10-03T05:02:30.275Z,3.67
2018-10-03T05:04:58.819Z,3.43
2018-10-03T05:07:27.349Z,3.43
2018-10-03T05:09:55.976Z,3.80
2018-10-03T05:12:24.542Z,3.07
2018-10-03T05:14:53.072Z,4.40
2018-10-03T05:17:21.620Z,3.43
2018-10-03T05:19:50.132Z,3.10
2018-10-03T05:22:18.688Z,3.90
2018-10-03T05:24:47.253Z,4.37
2018-10-03T05:27:15.895Z,3.63
2018-10-03T05:29:44.467Z,3.73
2018-10-03T05:32:13.177Z,3.73
2018-10-03T05:34:41.757Z,3.80
2018-10-03T05:37:10.237Z,3.83
2018-10-03T05:39:38.973Z,4.00
2018-10-03T05:42:07.515Z,3.60
2018-10-03T05:44:36.133Z,3.90
2018-10-03T05:47:04.613Z,3.70
2018-10-03T05:49:33.083Z,4.13
2018-10-03T05:52:01.596Z,3.77
2018-10-03T05:54:30.159Z,3.37
2018-10-03T05:56:58.703Z,3.50
2018-10-03T05:59:27.235Z,3.33
2018-10-03T06:01:55.796Z,4.13
2018-10-03T06:04:24.413Z,3.40
2018-10-03T06:06:52.957Z,3.50
2018-10-03T06:09:21.510Z,3.87
2018-10-03T06:11:50.066Z,3.30
2018-10-03T06:14:18.647Z,3.73
2018-10-03T06:16:47.172Z,3.70
2018-10-03T06:19:15.755Z,3.87
2018-10-03T06:21:44.375Z,4.07
2018-10-03T06:24:13.042Z,3.80
2018-10-03T06:26:41.561Z,3.40
2018-10-03T06:29:10.228Z,2.90
2018-10-03T06:31:38.851Z,3.67
2018-10-03T06:34:07.407Z,3.60
2018-10-03T06:36:35.922Z,4.57
2018-10-03T06:39:05.840Z,4.13
2018-10-03T06:41:34.398Z,3.43
2018-10-03T06:44:02.880Z,3.67
2018-10-03T06:46:31.423Z,3.17
2018-10-03T06:49:00.000Z,3.33
2018-10-03T06:51:28.576Z,3.80
2018-10-03T06:53:57.267Z,3.50
2018-10-03T06:56:25.849Z,3.63
2018-10-03T06:58:54.449Z,3.13
2018-10-03T07:01:23.012Z,4.20
2018-10-03T07:03:51.620Z,3.40
2018-10-03T07:06:20.266Z,3.37
2018-10-03T07:08:48.936Z,3.77
2018-10-03T07:11:17.550Z,4.30
2018-10-03T07:13:46.119Z,3.83
2018-10-03T07:16:14.685Z,4.00
2018-10-03T07:18:43.265Z,3.33
2018-10-03T07:21:11.890Z,3.27
2018-10-03T07:23:40.495Z,3.90
2018-10-03T07:26:09.316Z,3.23
2018-10-03T07:28:37.881Z,3.30
2018-10-03T07:31:06.561Z,3.03
2018-10-03T07:33:35.129Z,3.70
2018-10-03T07:36:03.690Z,3.80
2018-10-03T07:38:32.226Z,3.37
2018-10-03T07:41:00.728Z,2.83
2018-10-03T07:43:29.395Z,3.17
2018-10-03T07:46:07.853Z,3.57
2018-10-03T07:48:36.435Z,3.50
2018-10-03T07:51:05.116Z,3.30
2018-10-03T07:53:33.689Z,3.57
2018-10-03T07:56:02.197Z,3.30
2018-10-03T07:58:30.760Z,3.47
2018-10-03T08:00:59.508Z,3.33
2018-10-03T08:03:28.070Z,3.30
2018-10-03T08:05:56.728Z,3.50
2018-10-03T08:08:25.289Z,3.60
2018-10-03T08:10:53.912Z,3.17
2018-10-03T08:13:22.509Z,4.70
2018-10-03T08:15:51.102Z,3.53
2018-10-03T08:18:19.802Z,3.63
2018-10-03T08:20:48.375Z,3.80
2018-10-03T08:23:17.052Z,3.60
2018-10-03T08:25:45.685Z,3.23
2018-10-03T08:28:14.243Z,3.07
2018-10-03T08:30:42.960Z,3.23
2018-10-03T08:33:11.820Z,3.40
2018-10-03T08:35:40.493Z,3.70
2018-10-03T08:38:09.101Z,3.57
2018-10-03T08:40:37.721Z,2.87
2018-10-03T08:43:07.000Z,2.77
2018-10-03T08:45:35.609Z,3.10
2018-10-03T08:48:05.178Z,3.00
2018-10-03T08:50:33.741Z,2.80
2018-10-03T08:53:02.415Z,3.23
2018-10-03T08:55:31.020Z,3.40
2018-10-03T08:57:59.707Z,2.50
2018-10-03T09:02:36.475Z,2.87
2018-10-03T09:05:06.020Z,3.23
2018-10-03T09:07:34.976Z,3.40
2018-10-03T09:10:04.073Z,2.73
2018-10-03T09:12:32.808Z,2.80
2018-10-03T09:15:01.934Z,3.13
2018-10-03T09:17:31.230Z,2.90
2018-10-03T09:20:00.336Z,3.27
2018-10-03T09:22:28.933Z,3.23
2018-10-03T09:24:57.951Z,4.37
2018-10-03T09:27:27.230Z,3.30
2018-10-03T09:29:56.129Z,3.43
2018-10-03T09:32:24.765Z,2.63
2018-10-03T09:34:53.346Z,2.87
2018-10-03T09:37:23.004Z,2.93
2018-10-03T09:39:51.820Z,3.27
2018-10-03T09:42:20.572Z,2.67
2018-10-03T09:44:50.072Z,2.67
2018-10-03T09:47:18.766Z,2.70
2018-10-03T09:49:48.276Z,2.70
2018-10-03T09:52:16.927Z,2.57
2018-10-03T09:54:46.563Z,2.70
2018-10-03T09:57:15.701Z,2.97
2018-10-03T09:59:44.792Z,2.50
2018-10-03T10:02:14.420Z,2.47
2018-10-03T10:04:43.070Z,2.30
2018-10-03T10:07:13.158Z,2.50
2018-10-03T10:09:42.800Z,2.70
2018-10-03T10:12:11.421Z,2.90
2018-10-03T10:14:40.590Z,2.70
2018-10-03T10:17:09.729Z,2.50
2018-10-03T10:19:38.581Z,2.23
2018-10-03T10:22:07.141Z,2.87
2018-10-03T10:24:35.721Z,2.23
2018-10-03T10:27:04.487Z,2.20
2018-10-03T10:29:33.487Z,2.00
2018-10-03T10:32:02.450Z,1.97
2018-10-03T10:34:31.425Z,2.27
2018-10-03T10:37:00.706Z,2.27
2018-10-03T10:39:29.935Z,2.50
2018-10-03T10:41:58.667Z,2.50
2018-10-03T10:44:27.738Z,2.63
2018-10-03T10:46:56.513Z,1.93
2018-10-03T10:49:26.818Z,2.97
2018-10-03T10:51:56.306Z,2.77
2018-10-03T10:54:25.265Z,3.40
2018-10-03T10:56:54.109Z,2.63
2018-10-03T10:59:23.398Z,2.43
2018-10-03T11:01:52.460Z,2.27
2018-10-03T11:04:21.400Z,2.70
2018-10-03T11:06:50.126Z,2.13
2018-10-03T11:09:18.930Z,1.90
2018-10-03T11:11:47.686Z,2.50
2018-10-03T11:14:17.947Z,2.43
2018-10-03T11:16:46.796Z,2.30
2018-10-03T11:19:15.476Z,2.63
2018-10-03T11:21:44.125Z,2.43
2018-10-03T11:24:12.834Z,2.33
2018-10-03T11:26:41.573Z,2.30
2018-10-03T11:29:10.791Z,2.77
2018-10-03T11:31:39.773Z,2.20
2018-10-03T11:34:08.658Z,2.23
2018-10-03T11:36:37.345Z,2.17
2018-10-03T11:39:08.183Z,2.10
2018-10-03T11:41:37.147Z,2.17
2018-10-03T11:44:05.826Z,1.83
2018-10-03T11:46:34.821Z,2.17
2018-10-03T11:49:03.426Z,3.13
2018-10-03T11:51:32.024Z,2.33
2018-10-03T11:54:00.870Z,2.07
2018-10-03T11:56:31.777Z,2.70
2018-10-03T11:59:01.981Z,1.73
2018-10-03T12:01:30.996Z,2.67
2018-10-03T12:03:59.814Z,3.40
2018-10-03T12:06:28.667Z,2.23
2018-10-03T12:08:57.327Z,2.50
2018-10-03T12:11:25.905Z,2.27
2018-10-03T12:13:55.486Z,2.90
2018-10-03T12:16:24.569Z,1.80
2018-10-03T12:18:53.274Z,2.37
2018-10-03T12:21:22.243Z,2.73
2018-10-03T12:23:51.026Z,2.50
2018-10-03T12:26:20.206Z,2.90
2018-10-03T12:28:49.362Z,3.23
2018-10-03T12:31:18.086Z,3.13
2018-10-03T12:33:47.116Z,1.83
2018-10-03T12:36:16.154Z,2.57
2018-10-03T12:38:45.619Z,2.80
2018-10-03T12:41:14.524Z,2.57
2018-10-03T12:43:43.311Z,2.40
2018-10-03T12:46:11.997Z,3.53
2018-10-03T12:48:41.208Z,2.80
2018-10-03T12:51:09.736Z,2.97
2018-10-03T12:53:38.995Z,3.60
2018-10-03T12:56:07.605Z,3.30
2018-10-03T12:58:36.661Z,2.73
2018-10-03T13:01:11.752Z,2.50
2018-10-03T13:03:40.697Z,2.87
2018-10-03T13:06:09.477Z,2.93
2018-10-03T13:08:38.438Z,2.80
2018-10-03T13:11:07.286Z,2.10
2018-10-03T13:13:36.070Z,2.37
2018-10-03T13:16:04.845Z,2.33
2018-10-03T13:18:33.465Z,2.50
2018-10-03T13:21:02.299Z,2.90
2018-10-03T13:23:30.856Z,2.53
2018-10-03T13:25:59.843Z,2.20
2018-10-03T13:28:28.575Z,2.33
2018-10-03T13:30:57.398Z,2.17
2018-10-03T13:33:26.028Z,2.53
2018-10-03T13:35:54.797Z,2.50
2018-10-03T13:38:23.453Z,2.90
2018-10-03T13:40:52.064Z,2.27
2018-10-03T13:43:20.576Z,2.20
2018-10-03T13:45:49.119Z,2.70
2018-10-03T13:48:17.891Z,2.40
2018-10-03T13:50:47.000Z,2.70
2018-10-03T13:53:15.592Z,2.77
2018-10-03T13:55:44.370Z,2.10
2018-10-03T13:58:13.203Z,2.50
2018-10-03T14:00:41.765Z,2.70
2018-10-03T14:03:10.622Z,2.40
2018-10-03T14:05:39.324Z,2.67
2018-10-03T14:08:07.861Z,2.43
2018-10-03T14:10:36.771Z,2.97
2018-10-03T14:13:05.688Z,2.70
2018-10-03T14:15:34.272Z,2.40
2018-10-03T14:18:02.858Z,2.57
2018-10-03T14:20:31.902Z,1.90
2018-10-03T14:23:00.453Z,2.37
2018-10-03T14:25:29.013Z,2.80
2018-10-03T14:27:57.512Z,3.00
2018-10-03T14:30:26.260Z,2.60
2018-10-03T14:32:54.852Z,2.40
2018-10-03T14:35:23.387Z,2.40
2018-10-03T14:37:51.927Z,2.60
2018-10-03T14:40:20.543Z,2.30
2018-10-03T14:42:49.100Z,2.40
2018-10-03T14:45:17.772Z,2.60
2018-10-03T14:47:46.952Z,2.17
2018-10-03T14:50:15.533Z,2.80
2018-10-03T14:52:44.589Z,2.40
2018-10-03T14:55:13.357Z,2.17
2018-10-03T14:57:42.097Z,2.03
2018-10-03T15:00:10.720Z,2.20
2018-10-03T15:02:40.005Z,2.50
2018-10-03T15:05:09.255Z,2.20
2018-10-03T15:07:39.358Z,2.27
2018-10-03T15:10:08.004Z,2.40
2018-10-03T15:12:36.641Z,2.20
2018-10-03T15:15:05.236Z,1.70
2018-10-03T15:17:33.811Z,2.10
2018-10-03T15:20:02.399Z,2.33
2018-10-03T15:22:31.196Z,2.13
2018-10-03T15:24:59.987Z,2.00
2018-10-03T15:27:28.565Z,2.10
2018-10-03T15:29:57.237Z,2.57
2018-10-03T15:32:25.803Z,2.67
2018-10-03T15:34:54.689Z,2.07
2018-10-03T15:37:23.316Z,2.40
2018-10-03T15:39:51.835Z,2.30
2018-10-03T15:42:20.681Z,1.80
2018-10-03T15:44:49.517Z,2.07
2018-10-03T15:47:18.105Z,2.03
2018-10-03T15:49:46.975Z,2.93
2018-10-03T15:52:15.558Z,2.37
2018-10-03T15:54:44.157Z,2.20
2018-10-03T15:57:13.069Z,2.50
2018-10-03T15:59:41.656Z,2.10
2018-10-03T16:02:10.206Z,2.00
2018-10-03T16:04:38.914Z,1.97
2018-10-03T16:07:07.477Z,1.90
2018-10-03T16:09:36.152Z,1.87
2018-10-03T16:12:04.686Z,2.53
2018-10-03T16:14:33.393Z,2.03
2018-10-03T16:17:02.037Z,2.20
2018-10-03T16:19:31.059Z,2.17
2018-10-03T16:21:59.632Z,2.50
2018-10-03T16:24:29.522Z,2.30
2018-10-03T16:26:58.189Z,2.00
2018-10-03T16:29:27.180Z,1.90
2018-10-03T16:31:55.800Z,2.17
2018-10-03T16:34:24.306Z,2.33
2018-10-03T16:36:53.145Z,2.27
2018-10-03T16:39:21.676Z,1.77
2018-10-03T16:41:50.294Z,2.57
2018-10-03T16:44:19.213Z,2.33
2018-10-03T16:46:47.772Z,2.03
2018-10-03T16:49:16.407Z,2.20
2018-10-03T16:51:47.165Z,2.57
2018-10-03T16:54:16.122Z,2.10
2018-10-03T16:56:45.040Z,2.03
2018-10-03T16:59:14.394Z,2.43
2018-10-03T17:01:43.040Z,2.07
2018-10-03T17:04:11.743Z,2.23
2018-10-03T17:06:40.785Z,2.27
2018-10-03T17:09:10.424Z,2.53
2018-10-03T17:11:40.168Z,2.57
2018-10-03T17:14:28.071Z,2.47
2018-10-03T17:16:57.041Z,2.30
2018-10-03T17:19:25.646Z,2.00
2018-10-03T17:21:54.985Z,2.20
2018-10-03T17:24:25.170Z,2.23
2018-10-03T17:26:54.013Z,2.70
2018-10-03T17:29:22.767Z,2.40
2018-10-03T17:31:51.276Z,2.60
2018-10-03T17:34:19.981Z,2.27
2018-10-03T17:36:49.835Z,2.00
2018-10-03T17:39:18.739Z,2.60
2018-10-03T17:41:47.329Z,2.53
2018-10-03T17:44:16.977Z,2.13
2018-10-03T17:46:45.960Z,2.50
2018-10-03T17:49:14.624Z,2.50
2018-10-03T17:51:43.286Z,2.40
2018-10-03T17:54:11.836Z,2.30
2018-10-03T17:56:41.352Z,2.17
2018-10-03T17:59:10.771Z,2.77
2018-10-03T18:01:44.571Z,2.33
2018-10-03T18:04:15.653Z,2.30
2018-10-03T18:06:46.384Z,2.40
2018-10-03T18:09:16.871Z,2.00
2018-10-03T18:11:46.967Z,2.00
2018-10-03T18:14:15.500Z,2.53
2018-10-03T18:16:44.030Z,2.27
2018-10-03T18:19:12.520Z,2.10
2018-10-03T18:21:41.407Z,2.20
2018-10-03T18:24:09.865Z,2.03
2018-10-03T18:26:38.752Z,2.57
2018-10-03T18:29:07.429Z,2.23
2018-10-03T18:31:35.908Z,3.33
2018-10-03T18:34:04.465Z,1.97
2018-10-03T18:36:33.037Z,2.70
2018-10-03T18:39:01.546Z,2.17
2018-10-03T18:41:30.003Z,2.57
2018-10-03T18:43:58.490Z,3.27
2018-10-03T18:46:27.042Z,3.03
2018-10-03T18:48:55.599Z,2.27
2018-10-03T18:51:24.127Z,2.70
2018-10-03T18:53:53.625Z,2.60
2018-10-03T18:56:22.231Z,2.30
2018-10-03T18:58:50.853Z,2.90
2018-10-03T19:01:19.403Z,1.97
2018-10-03T19:03:48.212Z,1.97
2018-10-03T19:06:16.881Z,2.40
2018-10-03T19:08:45.401Z,2.50
2018-10-03T19:11:14.623Z,2.23
2018-10-03T19:13:44.036Z,2.73
2018-10-03T19:16:12.602Z,2.43
2018-10-03T19:18:41.286Z,2.60
2018-10-03T19:21:10.273Z,2.83
2018-10-03T19:23:39.143Z,2.53
2018-10-03T19:26:08.061Z,2.20
2018-10-03T19:28:37.124Z,2.83
2018-10-03T19:31:05.736Z,2.73
2018-10-03T19:33:35.903Z,2.60
2018-10-03T19:36:06.343Z,3.33
2018-10-03T19:38:35.102Z,2.77
2018-10-03T19:41:04.051Z,2.90
2018-10-03T19:43:36.663Z,3.03
2018-10-03T19:46:05.372Z,2.33
2018-10-03T19:48:36.234Z,2.50
2018-10-03T19:51:05.168Z,3.57
2018-10-03T19:53:35.510Z,2.73
2018-10-03T19:56:04.542Z,3.13
2018-10-03T19:58:33.493Z,2.20
2018-10-03T20:01:02.884Z,2.77
2018-10-03T20:03:31.745Z,2.83
2018-10-03T20:06:00.196Z,3.17
2018-10-03T20:08:28.903Z,3.30
2018-10-03T20:10:57.650Z,3.30
2018-10-03T20:13:26.505Z,2.77
2018-10-03T20:15:55.232Z,2.77
2018-10-03T20:18:24.212Z,3.23
2018-10-03T20:20:53.070Z,2.80
2018-10-03T20:23:22.050Z,2.53
2018-10-03T20:25:51.228Z,3.20
2018-10-03T20:28:19.879Z,2.70
2018-10-03T20:30:48.445Z,2.80
2018-10-03T20:33:17.293Z,3.27
2018-10-03T20:35:45.869Z,2.90
2018-10-03T20:38:14.742Z,2.83
2018-10-03T20:40:43.733Z,4.27
2018-10-03T20:43:12.350Z,3.70
2018-10-03T20:45:41.233Z,3.00
2018-10-03T20:48:09.806Z,3.00
2018-10-03T20:50:38.688Z,2.67
2018-10-03T20:53:07.207Z,3.03
2018-10-03T20:55:35.838Z,3.00
2018-10-03T20:58:04.509Z,3.00
2018-10-03T21:00:33.683Z,3.13
2018-10-03T21:03:02.409Z,2.73
2018-10-03T21:05:31.076Z,3.37
2018-10-03T21:07:59.690Z,3.73
2018-10-03T21:10:28.308Z,3.43
2018-10-03T21:12:56.935Z,3.30
2018-10-03T21:15:25.457Z,3.00
2018-10-03T21:17:55.646Z,3.70
2018-10-03T21:20:24.378Z,3.20
2018-10-03T21:22:53.180Z,3.47
2018-10-03T21:25:21.759Z,3.60
2018-10-03T21:27:50.341Z,3.80
2018-10-03T21:30:19.041Z,4.20
2018-10-03T21:32:47.589Z,3.80
2018-10-03T21:35:16.205Z,3.60
2018-10-03T21:37:44.784Z,4.03
2018-10-03T21:40:13.304Z,3.90
2018-10-03T21:42:41.856Z,3.47
2018-10-03T21:45:10.364Z,3.80
2018-10-03T21:47:39.030Z,4.00
2018-10-03T21:50:07.604Z,4.50
2018-10-03T21:52:36.201Z,4.30
2018-10-03T21:55:04.756Z,4.60
2018-10-03T21:57:33.226Z,4.17
2018-10-03T22:00:02.312Z,3.80
2018-10-03T22:02:32.279Z,4.20
2018-10-03T22:05:00.939Z,4.37
2018-10-03T22:07:29.500Z,4.80
2018-10-03T22:09:58.362Z,4.80
2018-10-03T22:12:26.892Z,4.33
2018-10-03T22:14:55.401Z,4.57
2018-10-03T22:17:25.862Z,4.33
2018-10-03T22:19:56.373Z,4.27
2018-10-03T22:22:24.952Z,4.07
2018-10-03T22:24:53.699Z,4.00
2018-10-03T22:27:24.827Z,4.20
2018-10-03T22:29:53.702Z,3.73
2018-10-03T22:32:26.458Z,4.20
2018-10-03T22:34:55.450Z,4.27
2018-10-03T22:37:26.054Z,4.30
2018-10-03T22:39:54.610Z,4.00
2018-10-03T22:42:23.128Z,3.87
2018-10-03T22:44:54.121Z,3.40
2018-10-03T22:47:24.661Z,4.10
2018-10-03T22:49:54.589Z,4.23
2018-10-03T22:52:24.122Z,4.10
2018-10-03T22:54:55.295Z,3.87
2018-10-03T22:57:23.948Z,3.83
2018-10-03T22:59:52.502Z,3.90
2018-10-03T23:02:24.512Z,4.20
2018-10-03T23:04:55.680Z,4.40
2018-10-03T23:07:24.648Z,4.33
2018-10-03T23:09:53.170Z,4.27
2018-10-03T23:12:21.731Z,4.13
2018-10-03T23:14:50.329Z,3.40
2018-10-03T23:17:19.070Z,3.67
2018-10-03T23:19:48.148Z,3.97
2018-10-03T23:22:17.071Z,4.87
2018-10-03T23:24:45.916Z,3.80
2018-10-03T23:27:14.654Z,3.87
2018-10-03T23:29:43.486Z,4.03
2018-10-03T23:32:12.074Z,4.13
2018-10-03T23:34:40.585Z,4.03
2018-10-03T23:37:10.826Z,4.10
2018-10-03T23:39:42.194Z,3.70
2018-10-03T23:42:13.932Z,3.90
2018-10-03T23:44:44.540Z,4.47
2018-10-03T23:47:17.696Z,4.20
2018-10-03T23:49:48.886Z,4.00
2018-10-03T23:52:20.212Z,4.20
2018-10-03T23:54:51.061Z,4.10
2018-10-03T23:57:21.878Z,4.37
2018-10-03T23:59:50.672Z,3.97
